createdAt,value
2018-11-29T00:00:04.027Z,51.60
2018-11-29T00:01:04.003Z,48.80
2018-11-29T00:02:03.981Z,47.20
2018-11-29T00:03:03.954Z,45.80
2018-11-29T00:04:03.928Z,44.60
2018-11-29T00:05:03.907Z,45.70
2018-11-29T00:06:03.882Z,49.40
2018-11-29T00:07:03.860Z,48.50
2018-11-29T00:08:03.832Z,46.40
2018-11-29T00:09:03.806Z,48.80
2018-11-29T00:10:03.787Z,44.90
2018-11-29T00:11:03.759Z,44.30
2018-11-29T00:12:03.739Z,43.40
2018-11-29T00:13:03.714Z,47.40
2018-11-29T00:14:03.687Z,47.60
2018-11-29T00:15:03.664Z,46.40
2018-11-29T00:16:03.640Z,45.60
2018-11-29T00:17:03.623Z,45.40
2018-11-29T00:18:03.592Z,44.10
2018-11-29T00:19:03.572Z,43.70
2018-11-29T00:20:03.545Z,44.30
2018-11-29T00:21:03.517Z,49.70
2018-11-29T00:22:03.490Z,46.70
2018-11-29T00:23:03.474Z,46.20
2018-11-29T00:24:03.448Z,45.10
2018-11-29T00:25:03.420Z,44.20
2018-11-29T00:26:03.396Z,42.50
2018-11-29T00:27:03.374Z,46.00
2018-11-29T00:28:03.346Z,48.10
2018-11-29T00:29:03.322Z,45.80
2018-11-29T00:30:03.300Z,45.10
2018-11-29T00:31:03.282Z,43.20
2018-11-29T00:32:03.254Z,43.80
2018-11-29T00:33:03.226Z,43.10
2018-11-29T00:34:03.202Z,49.00
2018-11-29T00:35:03.178Z,45.90
2018-11-29T00:36:03.154Z,46.00
2018-11-29T00:37:03.132Z,44.80
2018-11-29T00:38:03.106Z,45.50
2018-11-29T00:39:03.082Z,43.60
2018-11-29T00:40:03.067Z,46.00
2018-11-29T00:41:03.032Z,46.50
2018-11-29T00:42:03.009Z,45.00
2018-11-29T00:43:02.986Z,45.40
2018-11-29T00:44:02.958Z,43.50
2018-11-29T00:45:02.934Z,42.00
2018-11-29T00:46:02.910Z,42.20
2018-11-29T00:47:02.886Z,43.70
2018-11-29T00:48:02.866Z,42.40
2018-11-29T00:49:02.834Z,43.20
2018-11-29T00:50:02.816Z,42.20
2018-11-29T00:51:02.790Z,41.60
2018-11-29T00:52:02.764Z,44.00
2018-11-29T00:53:02.738Z,47.10
2018-11-29T00:54:02.727Z,44.60
2018-11-29T00:55:02.692Z,44.80
2018-11-29T00:56:02.672Z,43.60
2018-11-29T00:57:02.649Z,44.90
2018-11-29T00:58:02.621Z,43.10
2018-11-29T00:59:02.601Z,44.20
2018-11-29T01:00:02.573Z,43.50
2018-11-29T01:01:02.548Z,43.70
2018-11-29T01:02:02.522Z,42.30
2018-11-29T01:03:02.504Z,42.70
2018-11-29T01:04:02.522Z,42.00
2018-11-29T01:05:02.454Z,42.30
2018-11-29T01:06:02.426Z,43.20
2018-11-29T01:07:02.398Z,41.80
2018-11-29T01:08:02.374Z,42.30
2018-11-29T01:09:02.355Z,42.70
2018-11-29T01:10:02.327Z,42.70
2018-11-29T01:11:02.306Z,43.40
2018-11-29T01:12:02.281Z,42.70
2018-11-29T01:13:02.256Z,42.30
2018-11-29T01:14:02.230Z,41.00
2018-11-29T01:15:02.212Z,41.60
2018-11-29T01:16:02.181Z,41.20
2018-11-29T01:17:02.156Z,41.80
2018-11-29T01:18:02.131Z,40.10
2018-11-29T01:19:02.106Z,43.20
2018-11-29T01:20:02.086Z,44.80
2018-11-29T01:21:02.060Z,43.20
2018-11-29T01:22:02.036Z,40.90
2018-11-29T01:23:02.012Z,40.70
2018-11-29T01:24:01.984Z,40.40
2018-11-29T01:25:01.960Z,40.40
2018-11-29T01:26:01.939Z,43.70
2018-11-29T01:27:01.919Z,43.40
2018-11-29T01:28:01.893Z,42.80
2018-11-29T01:29:01.863Z,41.30
2018-11-29T01:30:01.843Z,40.60
2018-11-29T01:31:01.817Z,41.30
2018-11-29T01:32:01.797Z,40.10
2018-11-29T01:33:01.769Z,44.80
2018-11-29T01:34:01.745Z,42.50
2018-11-29T01:35:01.722Z,38.90
2018-11-29T01:36:01.695Z,40.10
2018-11-29T01:37:01.673Z,41.40
2018-11-29T01:38:01.644Z,38.60
2018-11-29T01:39:01.625Z,40.10
2018-11-29T01:40:01.598Z,41.60
2018-11-29T01:41:01.573Z,42.50
2018-11-29T01:42:01.551Z,42.80
2018-11-29T01:43:01.525Z,39.90
2018-11-29T01:44:01.500Z,40.80
2018-11-29T01:45:01.476Z,38.60
2018-11-29T01:46:01.448Z,39.90
2018-11-29T01:47:01.430Z,41.50
2018-11-29T01:48:01.402Z,42.10
2018-11-29T01:49:01.380Z,39.40
2018-11-29T01:50:01.359Z,38.30
2018-11-29T01:51:01.332Z,39.00
2018-11-29T01:52:01.348Z,39.00
2018-11-29T01:53:01.280Z,42.30
2018-11-29T01:54:01.258Z,41.40
2018-11-29T01:55:01.233Z,38.90
2018-11-29T01:56:01.210Z,39.20
2018-11-29T01:57:01.181Z,42.30
2018-11-29T01:58:01.161Z,41.40
2018-11-29T01:59:01.138Z,41.50
2018-11-29T02:00:01.113Z,39.10
2018-11-29T02:01:01.086Z,38.30
2018-11-29T02:02:01.058Z,38.20
2018-11-29T02:03:01.040Z,38.40
2018-11-29T02:04:01.018Z,42.70
2018-11-29T02:05:00.988Z,40.50
2018-11-29T02:06:00.966Z,40.80
2018-11-29T02:07:00.945Z,40.20
2018-11-29T02:08:00.919Z,39.00
2018-11-29T02:09:00.891Z,38.00
2018-11-29T02:10:00.869Z,37.90
2018-11-29T02:11:00.844Z,37.60
2018-11-29T02:12:00.820Z,37.20
2018-11-29T02:13:00.797Z,37.20
2018-11-29T02:14:00.772Z,37.40
2018-11-29T02:15:00.748Z,38.10
2018-11-29T02:16:00.720Z,37.80
2018-11-29T02:17:00.693Z,37.60
2018-11-29T02:18:00.672Z,37.90
2018-11-29T02:19:00.659Z,38.00
2018-11-29T02:20:00.626Z,37.50
2018-11-29T02:21:00.602Z,36.60
2018-11-29T02:22:00.576Z,37.30
2018-11-29T02:23:00.550Z,36.90
2018-11-29T02:24:00.525Z,36.90
2018-11-29T02:25:00.502Z,36.70
2018-11-29T02:26:00.480Z,40.10
2018-11-29T02:27:00.460Z,38.10
2018-11-29T02:28:00.430Z,38.80
2018-11-29T02:29:00.406Z,39.30
2018-11-29T02:30:00.383Z,36.90
2018-11-29T02:31:00.360Z,36.80
2018-11-29T02:32:00.334Z,37.40
2018-11-29T02:33:00.309Z,40.30
2018-11-29T02:34:00.285Z,38.80
2018-11-29T02:35:00.263Z,36.70
2018-11-29T02:36:00.239Z,36.20
2018-11-29T02:37:00.214Z,36.70
2018-11-29T02:38:00.181Z,40.20
2018-11-29T02:39:00.157Z,39.40
2018-11-29T02:40:00.133Z,39.60
2018-11-29T02:41:00.125Z,38.70
2018-11-29T02:42:00.095Z,38.80
2018-11-29T02:43:00.061Z,38.90
2018-11-29T02:44:00.037Z,36.20
2018-11-29T02:45:00.018Z,36.70
2018-11-29T02:45:59.990Z,37.70
2018-11-29T02:46:59.969Z,38.20
2018-11-29T02:47:59.943Z,38.10
2018-11-29T02:48:59.917Z,36.90
2018-11-29T02:49:59.895Z,37.30
2018-11-29T02:50:59.877Z,37.60
2018-11-29T02:51:59.841Z,39.10
2018-11-29T02:52:59.820Z,37.40
2018-11-29T02:53:59.796Z,37.10
2018-11-29T02:54:59.773Z,38.40
2018-11-29T02:55:59.743Z,37.80
2018-11-29T02:56:59.721Z,37.00
2018-11-29T02:57:59.703Z,36.60
2018-11-29T02:58:59.675Z,37.10
2018-11-29T02:59:59.653Z,37.00
2018-11-29T03:00:59.626Z,37.60
2018-11-29T03:01:59.601Z,37.30
2018-11-29T03:02:59.590Z,36.70
2018-11-29T03:03:59.556Z,36.50
2018-11-29T03:04:59.537Z,37.40
2018-11-29T03:05:59.503Z,36.20
2018-11-29T03:06:59.477Z,35.10
2018-11-29T03:07:59.460Z,35.40
2018-11-29T03:08:59.431Z,36.10
2018-11-29T03:09:59.412Z,36.70
2018-11-29T03:10:59.378Z,36.30
2018-11-29T03:11:59.358Z,36.20
2018-11-29T03:12:59.336Z,35.00
2018-11-29T03:13:59.312Z,36.10
2018-11-29T03:14:59.285Z,34.70
2018-11-29T03:15:59.261Z,37.10
2018-11-29T03:16:59.235Z,36.00
2018-11-29T03:17:59.209Z,36.20
2018-11-29T03:18:59.183Z,37.50
2018-11-29T03:19:59.163Z,37.40
2018-11-29T03:20:59.136Z,35.50
2018-11-29T03:21:59.115Z,35.70
2018-11-29T03:22:59.089Z,37.00
2018-11-29T03:23:59.065Z,36.00
2018-11-29T03:24:59.037Z,35.70
2018-11-29T03:25:59.015Z,36.10
2018-11-29T03:26:58.991Z,35.10
2018-11-29T03:27:58.965Z,34.90
2018-11-29T03:28:58.941Z,35.90
2018-11-29T03:29:58.919Z,36.30
2018-11-29T03:30:58.895Z,35.90
2018-11-29T03:31:58.915Z,35.50
2018-11-29T03:32:58.848Z,35.70
2018-11-29T03:33:58.822Z,34.80
2018-11-29T03:34:58.795Z,33.60
2018-11-29T03:35:58.775Z,35.90
2018-11-29T03:36:58.758Z,35.40
2018-11-29T03:37:58.730Z,34.30
2018-11-29T03:38:58.698Z,34.90
2018-11-29T03:39:58.683Z,34.50
2018-11-29T03:40:58.655Z,35.30
2018-11-29T03:41:58.626Z,34.80
2018-11-29T03:42:58.604Z,34.80
2018-11-29T03:43:58.578Z,34.40
2018-11-29T03:44:58.551Z,34.20
2018-11-29T03:45:58.528Z,33.80
2018-11-29T03:46:58.537Z,35.50
2018-11-29T03:47:58.486Z,33.70
2018-11-29T03:48:58.458Z,33.60
2018-11-29T03:49:58.432Z,33.80
2018-11-29T03:50:58.410Z,33.30
2018-11-29T03:51:58.384Z,33.70
2018-11-29T03:52:58.359Z,33.40
2018-11-29T03:53:58.338Z,33.90
2018-11-29T03:54:58.327Z,34.60
2018-11-29T03:55:58.293Z,34.00
2018-11-29T03:56:58.262Z,33.10
2018-11-29T03:57:58.240Z,32.90
2018-11-29T03:58:58.213Z,33.80
2018-11-29T03:59:58.198Z,32.70
2018-11-29T04:00:58.174Z,32.30
2018-11-29T04:01:58.142Z,33.90
2018-11-29T04:02:58.117Z,33.80
2018-11-29T04:03:58.090Z,32.30
2018-11-29T04:04:58.068Z,32.60
2018-11-29T04:05:58.046Z,32.30
2018-11-29T04:06:58.018Z,33.70
2018-11-29T04:07:57.998Z,32.80
2018-11-29T04:08:57.973Z,32.00
2018-11-29T04:09:57.948Z,32.10
2018-11-29T04:10:57.923Z,33.20
2018-11-29T04:11:57.901Z,31.20
2018-11-29T04:12:57.873Z,32.00
2018-11-29T04:13:57.846Z,31.90
2018-11-29T04:14:57.828Z,32.70
2018-11-29T04:15:57.799Z,33.20
2018-11-29T04:16:57.779Z,32.50
2018-11-29T04:17:57.752Z,33.40
2018-11-29T04:18:57.732Z,32.00
2018-11-29T04:19:57.707Z,32.90
2018-11-29T04:20:57.680Z,31.90
2018-11-29T04:21:57.655Z,32.90
2018-11-29T04:22:57.630Z,31.80
2018-11-29T04:23:57.608Z,31.60
2018-11-29T04:24:57.583Z,32.90
2018-11-29T04:25:57.558Z,32.80
2018-11-29T04:26:57.546Z,32.80
2018-11-29T04:27:57.512Z,32.60
2018-11-29T04:28:57.486Z,31.50
2018-11-29T04:29:57.462Z,32.60
2018-11-29T04:30:57.435Z,31.70
2018-11-29T04:31:57.411Z,32.00
2018-11-29T04:32:57.385Z,32.30
2018-11-29T04:33:57.363Z,32.30
2018-11-29T04:34:57.335Z,31.50
2018-11-29T04:35:57.314Z,32.00
2018-11-29T04:36:57.288Z,31.10
2018-11-29T04:37:57.270Z,31.20
2018-11-29T04:38:57.244Z,31.70
2018-11-29T04:39:57.218Z,31.90
2018-11-29T04:40:57.198Z,31.90
2018-11-29T04:41:57.168Z,32.40
2018-11-29T04:42:57.142Z,31.70
2018-11-29T04:43:57.893Z,32.70
2018-11-29T04:44:57.109Z,30.00
2018-11-29T04:45:57.084Z,31.00
2018-11-29T04:46:57.058Z,29.60
2018-11-29T04:47:57.029Z,31.00
2018-11-29T04:48:57.000Z,30.20
2018-11-29T04:49:56.975Z,31.00
2018-11-29T04:50:56.951Z,30.00
2018-11-29T04:51:56.930Z,30.40
2018-11-29T04:52:56.898Z,30.10
2018-11-29T04:53:56.879Z,30.70
2018-11-29T04:54:56.855Z,30.10
2018-11-29T04:55:56.828Z,29.80
2018-11-29T04:56:56.808Z,29.90
2018-11-29T04:57:56.782Z,30.20
2018-11-29T04:58:56.757Z,30.10
2018-11-29T04:59:56.730Z,29.10
2018-11-29T05:00:56.708Z,29.60
2018-11-29T05:01:56.687Z,29.20
2018-11-29T05:02:56.660Z,29.50
2018-11-29T05:03:56.641Z,29.20
2018-11-29T05:04:56.606Z,29.60
2018-11-29T05:05:56.586Z,28.70
2018-11-29T05:06:56.563Z,28.60
2018-11-29T05:07:56.540Z,28.50
2018-11-29T05:08:56.511Z,28.80
2018-11-29T05:09:56.491Z,29.10
2018-11-29T05:10:56.466Z,28.70
2018-11-29T05:11:56.439Z,28.80
2018-11-29T05:12:56.411Z,28.30
2018-11-29T05:13:56.395Z,28.40
2018-11-29T05:14:56.368Z,28.10
2018-11-29T05:15:56.343Z,28.70
2018-11-29T05:16:56.319Z,28.00
2018-11-29T05:17:56.293Z,28.80
2018-11-29T05:18:56.272Z,29.30
2018-11-29T05:19:56.251Z,27.90
2018-11-29T05:20:56.217Z,26.90
2018-11-29T05:21:56.194Z,28.10
2018-11-29T05:22:56.170Z,28.70
2018-11-29T05:23:56.156Z,27.40
2018-11-29T05:24:56.132Z,27.80
2018-11-29T05:25:56.098Z,27.70
2018-11-29T05:26:56.077Z,27.90
2018-11-29T05:27:56.051Z,28.10
2018-11-29T05:28:56.029Z,27.30
2018-11-29T05:29:56.004Z,27.40
2018-11-29T05:30:55.978Z,26.90
2018-11-29T05:31:55.957Z,27.70
2018-11-29T05:32:55.929Z,26.80
2018-11-29T05:33:55.905Z,27.40
2018-11-29T05:34:55.886Z,27.40
2018-11-29T05:35:55.857Z,26.40
2018-11-29T05:36:55.829Z,27.60
2018-11-29T05:37:55.809Z,27.00
2018-11-29T05:38:55.790Z,27.20
2018-11-29T05:39:55.759Z,26.90
2018-11-29T05:40:55.735Z,27.50
2018-11-29T05:41:55.805Z,27.30
2018-11-29T05:42:55.687Z,26.70
2018-11-29T05:43:55.665Z,26.40
2018-11-29T05:44:55.639Z,26.50
2018-11-29T05:45:55.611Z,27.60
2018-11-29T05:46:55.585Z,25.20
2018-11-29T05:47:55.561Z,26.60
2018-11-29T05:48:55.542Z,26.10
2018-11-29T05:49:55.515Z,26.50
2018-11-29T05:50:55.493Z,26.40
2018-11-29T05:51:55.470Z,26.50
2018-11-29T05:52:55.445Z,27.40
2018-11-29T05:53:55.423Z,27.00
2018-11-29T05:54:55.443Z,25.20
2018-11-29T05:55:55.369Z,25.30
2018-11-29T05:56:55.344Z,25.30
2018-11-29T05:57:55.324Z,26.70
2018-11-29T05:58:55.303Z,26.30
2018-11-29T05:59:55.274Z,26.20
2018-11-29T06:00:55.251Z,26.30
2018-11-29T06:01:55.224Z,25.30
2018-11-29T06:02:55.204Z,24.80
2018-11-29T06:03:55.176Z,25.70
2018-11-29T06:04:55.149Z,25.20
2018-11-29T06:05:55.126Z,25.50
2018-11-29T06:06:55.104Z,25.70
2018-11-29T06:07:55.077Z,26.20
2018-11-29T06:08:55.056Z,25.50
2018-11-29T06:09:55.031Z,25.50
2018-11-29T06:10:55.002Z,25.60
2018-11-29T06:11:54.990Z,25.30
2018-11-29T06:12:54.963Z,23.50
2018-11-29T06:13:54.933Z,25.20
2018-11-29T06:14:54.909Z,25.10
2018-11-29T06:15:54.881Z,25.30
2018-11-29T06:16:54.858Z,23.70
2018-11-29T06:17:54.834Z,24.30
2018-11-29T06:18:54.811Z,25.50
2018-11-29T06:19:54.788Z,24.40
2018-11-29T06:20:54.762Z,23.60
2018-11-29T06:21:54.759Z,24.30
2018-11-29T06:22:54.712Z,25.00
2018-11-29T06:23:54.688Z,24.80
2018-11-29T06:24:54.662Z,24.80
2018-11-29T06:25:54.639Z,24.50
2018-11-29T06:26:54.615Z,24.60
2018-11-29T06:27:54.588Z,24.40
2018-11-29T06:28:54.570Z,24.70
2018-11-29T06:29:54.544Z,24.30
2018-11-29T06:30:54.518Z,25.10
2018-11-29T06:31:54.492Z,24.20
2018-11-29T06:32:54.472Z,24.70
2018-11-29T06:33:54.543Z,25.80
2018-11-29T06:34:54.418Z,25.40
2018-11-29T06:35:54.396Z,24.80
2018-11-29T06:36:54.374Z,23.60
2018-11-29T06:37:54.345Z,24.80
2018-11-29T06:38:54.329Z,24.60
2018-11-29T06:39:54.300Z,24.10
2018-11-29T06:40:54.275Z,24.60
2018-11-29T06:41:54.256Z,23.50
2018-11-29T06:42:54.226Z,23.90
2018-11-29T06:43:54.208Z,24.70
2018-11-29T06:44:54.176Z,25.00
2018-11-29T06:45:54.154Z,25.50
2018-11-29T06:46:54.128Z,25.20
2018-11-29T06:47:54.108Z,24.40
2018-11-29T06:48:54.102Z,24.50
2018-11-29T06:49:54.059Z,25.50
2018-11-29T06:50:54.031Z,25.10
2018-11-29T06:51:54.017Z,25.00
2018-11-29T06:52:53.986Z,24.80
2018-11-29T06:53:53.958Z,24.30
2018-11-29T06:54:53.934Z,24.20
2018-11-29T06:55:53.908Z,24.90
2018-11-29T06:56:53.888Z,25.00
2018-11-29T06:57:53.862Z,25.30
2018-11-29T06:58:53.836Z,25.00
2018-11-29T06:59:53.814Z,23.90
2018-11-29T07:00:53.793Z,24.90
2018-11-29T07:01:53.762Z,24.30
2018-11-29T07:02:53.743Z,23.60
2018-11-29T07:03:53.714Z,24.10
2018-11-29T07:04:53.690Z,24.60
2018-11-29T07:05:53.669Z,25.40
2018-11-29T07:06:53.643Z,23.80
2018-11-29T07:07:53.622Z,24.90
2018-11-29T07:08:53.593Z,23.60
2018-11-29T07:09:53.574Z,24.70
2018-11-29T07:10:53.546Z,24.10
2018-11-29T07:11:53.523Z,23.40
2018-11-29T07:12:53.494Z,24.20
2018-11-29T07:13:53.474Z,23.90
2018-11-29T07:14:53.446Z,22.90
2018-11-29T07:15:53.433Z,23.10
2018-11-29T07:16:53.399Z,25.10
2018-11-29T07:17:53.378Z,24.90
2018-11-29T07:18:53.351Z,25.30
2018-11-29T07:19:53.326Z,25.20
2018-11-29T07:20:53.299Z,24.90
2018-11-29T07:21:53.285Z,23.20
2018-11-29T07:22:53.258Z,23.90
2018-11-29T07:23:53.233Z,26.00
2018-11-29T07:24:53.202Z,26.20
2018-11-29T07:25:53.180Z,25.80
2018-11-29T07:26:53.156Z,25.20
2018-11-29T07:27:53.132Z,25.20
2018-11-29T07:28:53.104Z,24.10
2018-11-29T07:29:53.082Z,25.90
2018-11-29T07:30:53.061Z,24.50
2018-11-29T07:31:53.036Z,25.70
2018-11-29T07:32:53.014Z,24.60
2018-11-29T07:33:52.985Z,25.70
2018-11-29T07:34:52.965Z,24.80
2018-11-29T07:35:52.947Z,25.70
2018-11-29T07:36:52.914Z,24.90
2018-11-29T07:37:52.888Z,24.80
2018-11-29T07:38:52.870Z,25.10
2018-11-29T07:39:52.839Z,24.60
2018-11-29T07:40:52.815Z,24.60
2018-11-29T07:41:52.788Z,25.50
2018-11-29T07:42:52.772Z,24.70
2018-11-29T07:43:52.752Z,24.90
2018-11-29T07:44:52.719Z,24.90
2018-11-29T07:45:52.691Z,26.10
2018-11-29T07:46:52.673Z,25.50
2018-11-29T07:47:52.650Z,25.80
2018-11-29T07:48:52.619Z,25.60
2018-11-29T07:49:52.596Z,25.60
2018-11-29T07:50:52.577Z,25.70
2018-11-29T07:51:52.546Z,25.60
2018-11-29T07:52:52.524Z,26.60
2018-11-29T07:53:52.501Z,24.50
2018-11-29T07:54:52.472Z,24.90
2018-11-29T07:55:52.449Z,26.30
2018-11-29T07:56:52.427Z,25.30
2018-11-29T07:57:52.397Z,25.70
2018-11-29T07:58:53.095Z,25.00
2018-11-29T07:59:52.355Z,25.90
2018-11-29T08:00:52.325Z,26.00
2018-11-29T08:01:52.305Z,26.00
2018-11-29T08:02:52.283Z,25.20
2018-11-29T08:03:52.257Z,25.20
2018-11-29T08:04:52.231Z,24.70
2018-11-29T08:05:52.207Z,25.20
2018-11-29T08:06:52.183Z,25.60
2018-11-29T08:07:52.161Z,24.10
2018-11-29T08:08:52.135Z,24.60
2018-11-29T08:09:52.111Z,24.80
2018-11-29T08:10:52.087Z,24.60
2018-11-29T08:11:52.062Z,25.90
2018-11-29T08:12:52.050Z,25.30
2018-11-29T08:13:52.023Z,23.80
2018-11-29T08:14:51.991Z,25.20
2018-11-29T08:15:51.967Z,24.70
2018-11-29T08:16:51.943Z,25.10
2018-11-29T08:17:51.921Z,24.70
2018-11-29T08:18:51.896Z,25.50
2018-11-29T08:19:51.892Z,24.40
2018-11-29T08:20:51.849Z,25.80
2018-11-29T08:21:51.831Z,24.90
2018-11-29T08:22:51.805Z,24.40
2018-11-29T08:23:51.778Z,24.40
2018-11-29T08:24:51.750Z,25.20
2018-11-29T08:25:51.728Z,25.30
2018-11-29T08:26:51.707Z,24.70
2018-11-29T08:27:51.681Z,24.80
2018-11-29T08:28:51.660Z,24.60
2018-11-29T08:29:51.639Z,24.90
2018-11-29T08:30:51.607Z,25.10
2018-11-29T08:31:51.585Z,24.10
2018-11-29T08:32:51.563Z,24.60
2018-11-29T08:33:51.536Z,24.30
2018-11-29T08:34:51.513Z,24.90
2018-11-29T08:35:51.490Z,24.00
2018-11-29T08:36:51.473Z,24.50
2018-11-29T08:37:51.443Z,23.50
2018-11-29T08:38:51.419Z,24.60
2018-11-29T08:39:51.396Z,24.30
2018-11-29T08:40:51.372Z,24.20
2018-11-29T08:41:51.351Z,23.80
2018-11-29T08:42:51.323Z,24.40
2018-11-29T08:43:51.299Z,24.90
2018-11-29T08:44:51.277Z,23.70
2018-11-29T08:45:51.257Z,24.30
2018-11-29T08:46:51.238Z,23.30
2018-11-29T08:47:51.206Z,23.40
2018-11-29T08:48:51.179Z,22.20
2018-11-29T08:49:51.163Z,20.60
2018-11-29T08:50:51.133Z,19.40
2018-11-29T08:51:51.110Z,21.00
2018-11-29T08:52:51.084Z,20.90
2018-11-29T08:53:51.070Z,21.10
2018-11-29T08:54:51.040Z,22.20
2018-11-29T08:55:51.014Z,21.10
2018-11-29T08:56:50.994Z,20.90
2018-11-29T08:57:50.966Z,20.80
2018-11-29T08:58:50.944Z,20.00
2018-11-29T08:59:50.919Z,21.00
2018-11-29T09:00:50.896Z,20.80
2018-11-29T09:01:50.872Z,19.70
2018-11-29T09:02:50.856Z,21.80
2018-11-29T09:03:50.825Z,20.50
2018-11-29T09:04:50.799Z,19.60
2018-11-29T09:05:50.776Z,20.80
2018-11-29T09:06:50.756Z,19.80
2018-11-29T09:07:50.732Z,19.90
2018-11-29T09:08:50.709Z,20.10
2018-11-29T09:09:50.688Z,19.40
2018-11-29T09:10:50.658Z,19.80
2018-11-29T09:11:50.641Z,20.20
2018-11-29T09:12:50.618Z,19.70
2018-11-29T09:13:50.592Z,20.10
2018-11-29T09:14:50.564Z,20.30
2018-11-29T09:15:50.547Z,19.70
2018-11-29T09:16:50.521Z,23.00
2018-11-29T09:17:50.498Z,20.10
2018-11-29T09:18:50.476Z,20.10
2018-11-29T09:19:50.448Z,19.30
2018-11-29T09:20:50.430Z,19.50
2018-11-29T09:21:50.406Z,20.30
2018-11-29T09:22:50.380Z,19.70
2018-11-29T09:23:50.362Z,19.00
2018-11-29T09:24:50.334Z,20.60
2018-11-29T09:25:50.314Z,18.70
2018-11-29T09:26:50.290Z,19.30
2018-11-29T09:27:50.270Z,19.20
2018-11-29T09:28:50.247Z,19.20
2018-11-29T09:29:50.223Z,18.20
2018-11-29T09:30:50.208Z,18.00
2018-11-29T09:31:50.180Z,18.40
2018-11-29T09:32:50.159Z,18.20
2018-11-29T09:33:50.135Z,18.20
2018-11-29T09:34:50.112Z,18.70
2018-11-29T09:35:50.100Z,18.50
2018-11-29T09:36:50.068Z,17.70
2018-11-29T09:37:50.048Z,17.30
2018-11-29T09:38:50.022Z,20.10
2018-11-29T09:39:50.003Z,18.50
2018-11-29T09:40:49.978Z,20.20
2018-11-29T09:41:49.962Z,18.50
2018-11-29T09:42:49.941Z,18.40
2018-11-29T09:43:49.917Z,18.40
2018-11-29T09:44:49.896Z,19.50
2018-11-29T09:45:49.870Z,19.50
2018-11-29T09:46:49.853Z,18.60
2018-11-29T09:47:49.826Z,18.80
2018-11-29T09:48:49.811Z,18.40
2018-11-29T09:49:49.780Z,18.60
2018-11-29T09:50:49.759Z,19.40
2018-11-29T09:51:49.738Z,18.80
2018-11-29T09:52:49.722Z,18.80
2018-11-29T09:53:49.698Z,18.40
2018-11-29T09:54:49.674Z,18.20
2018-11-29T09:55:49.654Z,18.30
2018-11-29T09:56:49.630Z,19.20
2018-11-29T09:57:49.606Z,19.00
2018-11-29T09:58:49.587Z,18.50
2018-11-29T09:59:49.564Z,19.00
2018-11-29T10:00:49.537Z,18.30
2018-11-29T10:01:49.523Z,18.60
2018-11-29T10:02:49.497Z,19.50
2018-11-29T10:03:49.472Z,19.30
2018-11-29T10:04:49.452Z,19.00
2018-11-29T10:05:49.427Z,17.90
2018-11-29T10:06:49.407Z,17.90
2018-11-29T10:07:49.381Z,18.70
2018-11-29T10:08:49.356Z,18.30
2018-11-29T10:09:49.342Z,18.50
2018-11-29T10:10:49.316Z,18.10
2018-11-29T10:11:49.294Z,18.40
2018-11-29T10:12:49.272Z,18.20
2018-11-29T10:13:49.248Z,17.90
2018-11-29T10:14:49.228Z,18.80
2018-11-29T10:15:49.203Z,18.30
2018-11-29T10:16:49.179Z,17.50
2018-11-29T10:17:49.154Z,18.50
2018-11-29T10:18:49.136Z,18.90
2018-11-29T10:19:49.114Z,18.70
2018-11-29T10:20:49.088Z,21.50
2018-11-29T10:21:49.073Z,19.30
2018-11-29T10:22:49.045Z,18.80
2018-11-29T10:23:49.021Z,18.10
2018-11-29T10:24:49.000Z,19.10
2018-11-29T10:25:48.974Z,18.30
2018-11-29T10:26:48.956Z,17.90
2018-11-29T10:27:48.932Z,18.20
2018-11-29T10:28:48.909Z,18.90
2018-11-29T10:29:48.884Z,19.00
2018-11-29T10:30:48.863Z,18.80
2018-11-29T10:31:48.836Z,20.00
2018-11-29T10:32:48.821Z,18.60
2018-11-29T10:33:48.798Z,18.80
2018-11-29T10:34:48.772Z,17.70
2018-11-29T10:35:48.748Z,19.20
2018-11-29T10:36:48.730Z,18.20
2018-11-29T10:37:48.706Z,17.80
2018-11-29T10:38:48.678Z,17.80
2018-11-29T10:39:48.658Z,18.50
2018-11-29T10:40:48.635Z,19.00
2018-11-29T10:41:48.613Z,18.60
2018-11-29T10:42:48.589Z,17.30
2018-11-29T10:43:48.568Z,19.00
2018-11-29T10:44:48.544Z,18.60
2018-11-29T10:45:48.526Z,18.40
2018-11-29T10:46:48.500Z,18.90
2018-11-29T10:47:52.338Z,17.60
2018-11-29T10:48:48.459Z,18.20
2018-11-29T10:49:48.428Z,17.90
2018-11-29T10:50:48.407Z,18.60
2018-11-29T10:51:48.389Z,18.40
2018-11-29T10:52:48.364Z,19.00
2018-11-29T10:53:48.338Z,18.20
2018-11-29T10:54:48.314Z,17.50
2018-11-29T10:55:48.298Z,17.40
2018-11-29T10:56:48.273Z,18.20
2018-11-29T10:57:48.253Z,18.10
2018-11-29T10:58:48.227Z,17.00
2018-11-29T10:59:48.203Z,20.10
2018-11-29T11:00:48.179Z,18.10
2018-11-29T11:01:48.158Z,18.30
2018-11-29T11:02:48.131Z,18.80
2018-11-29T11:03:48.109Z,18.00
2018-11-29T11:04:48.090Z,17.50
2018-11-29T11:05:48.066Z,21.70
2018-11-29T11:06:48.062Z,17.80
2018-11-29T11:07:48.022Z,17.60
2018-11-29T11:08:47.996Z,19.80
2018-11-29T11:09:47.974Z,17.10
2018-11-29T11:10:47.955Z,17.10
2018-11-29T11:11:47.940Z,17.80
2018-11-29T11:12:47.910Z,17.50
2018-11-29T11:13:47.889Z,18.60
2018-11-29T11:14:47.861Z,18.10
2018-11-29T11:15:47.841Z,18.10
2018-11-29T11:16:47.818Z,18.30
2018-11-29T11:17:47.798Z,17.30
2018-11-29T11:18:47.776Z,18.90
2018-11-29T11:19:47.753Z,17.20
2018-11-29T11:20:47.739Z,17.80
2018-11-29T11:21:47.703Z,17.80
2018-11-29T11:22:47.687Z,17.60
2018-11-29T11:23:47.660Z,17.30
2018-11-29T11:24:47.636Z,17.10
2018-11-29T11:25:47.613Z,16.90
2018-11-29T11:26:47.596Z,17.80
2018-11-29T11:27:47.570Z,18.40
2018-11-29T11:28:47.549Z,17.80
2018-11-29T11:29:47.526Z,17.20
2018-11-29T11:30:47.505Z,17.30
2018-11-29T11:31:47.489Z,16.70
2018-11-29T11:32:47.459Z,19.50
2018-11-29T11:33:47.439Z,17.50
2018-11-29T11:34:47.411Z,16.70
2018-11-29T11:35:47.391Z,17.00
2018-11-29T11:36:47.364Z,18.00
2018-11-29T11:37:47.349Z,16.80
2018-11-29T11:38:47.357Z,17.00
2018-11-29T11:39:47.306Z,17.40
2018-11-29T11:40:47.281Z,19.80
2018-11-29T11:41:47.255Z,17.10
2018-11-29T11:42:47.234Z,16.50
2018-11-29T11:43:47.211Z,17.40
2018-11-29T11:44:47.193Z,16.70
2018-11-29T11:45:47.165Z,16.70
2018-11-29T11:46:47.141Z,16.80
2018-11-29T11:47:47.118Z,16.70
2018-11-29T11:48:47.100Z,16.80
2018-11-29T11:49:47.071Z,17.10
2018-11-29T11:50:47.059Z,17.60
2018-11-29T11:51:47.307Z,15.50
2018-11-29T11:52:47.005Z,17.10
2018-11-29T11:53:46.985Z,16.90
2018-11-29T11:54:46.961Z,16.60
2018-11-29T11:55:53.288Z,16.20
2018-11-29T11:56:46.913Z,16.80
2018-11-29T11:57:46.895Z,18.10
2018-11-29T11:58:46.871Z,16.20
2018-11-29T11:59:46.852Z,16.70
2018-11-29T12:00:46.824Z,16.10
2018-11-29T12:01:46.799Z,16.30
2018-11-29T12:02:46.913Z,16.60
2018-11-29T12:03:46.755Z,16.10
2018-11-29T12:04:48.709Z,17.60
2018-11-29T12:05:46.724Z,17.30
2018-11-29T12:06:46.694Z,15.90
2018-11-29T12:07:46.671Z,15.30
2018-11-29T12:08:46.643Z,16.70
2018-11-29T12:09:46.621Z,16.80
2018-11-29T12:10:46.601Z,16.40
2018-11-29T12:11:46.571Z,15.70
2018-11-29T12:12:46.553Z,17.10
2018-11-29T12:13:46.540Z,17.00
2018-11-29T12:14:46.511Z,15.70
2018-11-29T12:15:46.485Z,15.50
2018-11-29T12:16:46.464Z,15.70
2018-11-29T12:17:46.438Z,15.40
2018-11-29T12:18:46.417Z,16.20
2018-11-29T12:19:46.395Z,15.70
2018-11-29T12:20:46.371Z,15.70
2018-11-29T12:21:46.345Z,15.90
2018-11-29T12:22:46.328Z,17.50
2018-11-29T12:23:46.302Z,16.50
2018-11-29T12:24:46.279Z,16.90
2018-11-29T12:25:46.258Z,16.00
2018-11-29T12:26:46.232Z,16.50
2018-11-29T12:27:46.212Z,16.50
2018-11-29T12:28:46.187Z,16.50
2018-11-29T12:29:46.165Z,16.10
2018-11-29T12:30:46.140Z,15.50
2018-11-29T12:31:46.121Z,15.30
2018-11-29T12:32:46.096Z,16.00
2018-11-29T12:33:46.073Z,18.70
2018-11-29T12:34:46.062Z,15.80
2018-11-29T12:35:46.033Z,16.20
2018-11-29T12:36:46.001Z,16.80
2018-11-29T12:37:45.983Z,15.70
2018-11-29T12:38:45.954Z,15.90
2018-11-29T12:39:45.944Z,15.50
2018-11-29T12:40:45.919Z,15.60
2018-11-29T12:41:45.891Z,16.00
2018-11-29T12:42:45.957Z,15.60
2018-11-29T12:43:45.853Z,15.20
2018-11-29T12:44:45.823Z,15.30
2018-11-29T12:45:45.806Z,15.80
2018-11-29T12:46:45.777Z,15.70
2018-11-29T12:47:45.755Z,16.20
2018-11-29T12:48:45.741Z,14.30
2018-11-29T12:49:45.711Z,15.90
2018-11-29T12:50:45.691Z,15.80
2018-11-29T12:51:45.671Z,15.20